Time;durP1;ratioP1;P1;durP2;ratioP2;P2;SDS_P1;SDS_P2;PMS_P1;PMS_P2;Temp;Humidity;BMP_temperature;BMP_pressure;BME280_temperature;BME280_humidity;BME280_pressure;Samples;Min_cycle;Max_cycle;Signal;HPM_P1;HPM_P2
2022/04/14 00:00:29;;;;;;;13.93;9.73;;;11.50;99.90;;;;;;5026119;28;20051;-79
2022/04/14 00:02:55;;;;;;;16.48;10.45;;;11.60;99.90;;;;;;5026697;28;20460;-78
2022/04/14 00:05:21;;;;;;;14.25;9.55;;;11.60;99.90;;;;;;5009107;28;20061;-78
2022/04/14 00:07:47;;;;;;;13.25;10.07;;;11.50;99.90;;;;;;5026237;28;20045;-79
2022/04/14 00:10:14;;;;;;;14.48;9.57;;;11.50;99.90;;;;;;5023243;28;20045;-79
2022/04/14 00:12:41;;;;;;;13.88;9.77;;;11.50;99.90;;;;;;5009915;28;20047;-78
2022/04/14 00:15:08;;;;;;;16.83;10.85;;;11.40;99.90;;;;;;5009585;28;20496;-78
2022/04/14 00:17:35;;;;;;;12.57;9.35;;;11.40;99.90;;;;;;5026248;28;20048;-78
2022/04/14 00:20:03;;;;;;;12.20;8.80;;;11.40;99.90;;;;;;4994111;28;20510;-78
2022/04/14 00:22:29;;;;;;;12.20;9.48;;;11.40;99.90;;;;;;5009808;28;20033;-78
2022/04/14 00:24:54;;;;;;;17.88;9.93;;;11.40;99.90;;;;;;4994138;28;20056;-78
2022/04/14 00:27:20;;;;;;;12.27;9.00;;;11.40;99.90;;;;;;5009376;28;20566;-79
2022/04/14 00:29:47;;;;;;;15.18;9.60;;;11.30;99.90;;;;;;5010435;28;20037;-78
2022/04/14 00:32:12;;;;;;;16.52;10.68;;;11.30;99.90;;;;;;5010153;28;20037;-79
2022/04/14 00:34:38;;;;;;;14.10;9.57;;;11.30;99.90;;;;;;5026715;28;20125;-79
2022/04/14 00:37:04;;;;;;;14.75;9.20;;;11.30;99.90;;;;;;5008209;28;20047;-78
2022/04/14 00:39:30;;;;;;;13.82;10.40;;;11.30;99.90;;;;;;4993438;28;20049;-78
2022/04/14 00:41:56;;;;;;;12.60;8.68;;;11.30;99.90;;;;;;4992902;28;20049;-78
2022/04/14 00:44:22;;;;;;;12.38;9.90;;;11.30;99.90;;;;;;5025866;28;20045;-78
2022/04/14 00:46:48;;;;;;;17.88;10.70;;;11.30;99.90;;;;;;5026691;28;20105;-78
2022/04/14 00:49:14;;;;;;;15.00;10.80;;;11.30;99.90;;;;;;5009971;28;20126;-78
2022/04/14 00:51:40;;;;;;;15.48;10.48;;;11.30;99.90;;;;;;4976135;28;20045;-78
2022/04/14 00:54:05;;;;;;;16.67;10.35;;;11.30;99.90;;;;;;5010116;28;20044;-79
2022/04/14 00:56:31;;;;;;;13.93;10.02;;;11.20;99.90;;;;;;5008279;28;20557;-78
2022/04/14 00:58:57;;;;;;;12.23;9.43;;;11.20;99.90;;;;;;5006915;28;20507;-78
2022/04/14 01:01:23;;;;;;;16.10;10.38;;;11.20;99.90;;;;;;5023882;28;20078;-79
2022/04/14 01:03:51;;;;;;;14.50;11.30;;;11.20;99.90;;;;;;5006837;28;20116;-78
2022/04/14 01:06:23;;;;;;;15.05;10.30;;;11.10;99.90;;;;;;5005211;28;20197;-78
2022/04/14 01:11:36;;;;;;;16.13;11.85;;;11.10;99.90;;;;;;5007563;28;20040;-78
2022/04/14 01:14:02;;;;;;;17.23;11.75;;;11.10;99.90;;;;;;4989963;28;20049;-78
2022/04/14 01:16:28;;;;;;;17.60;11.70;;;11.00;99.90;;;;;;4990424;28;20041;-78
2022/04/14 01:18:54;;;;;;;17.25;13.13;;;11.00;99.90;;;;;;5021363;28;20202;-78
2022/04/14 01:21:21;;;;;;;14.68;11.65;;;11.00;99.90;;;;;;5021238;28;20818;-78
2022/04/14 01:23:48;;;;;;;13.45;11.60;;;10.90;99.90;;;;;;5024064;28;20053;-78
2022/04/14 01:26:14;;;;;;;17.35;12.63;;;10.90;99.90;;;;;;5021654;28;20041;-78
2022/04/14 01:28:40;;;;;;;14.25;10.95;;;10.80;99.90;;;;;;5008255;28;20535;-79
2022/04/14 01:31:06;;;;;;;18.88;14.43;;;10.80;99.90;;;;;;4992916;28;20056;-78
2022/04/14 01:33:32;;;;;;;14.43;12.27;;;10.80;99.90;;;;;;5009245;28;20120;-78
2022/04/14 01:36:00;;;;;;;19.48;13.60;;;10.70;99.90;;;;;;5025633;28;20057;-79
2022/04/14 01:38:26;;;;;;;16.20;12.65;;;10.70;99.90;;;;;;5009169;28;20109;-78
2022/04/14 01:40:52;;;;;;;18.98;13.90;;;10.60;99.90;;;;;;5008278;28;21065;-79
2022/04/14 01:43:17;;;;;;;17.75;14.30;;;10.60;99.90;;;;;;4992833;28;20044;-79
2022/04/14 01:45:48;;;;;;;20.35;14.93;;;10.60;99.90;;;;;;5009112;28;20045;-79
2022/04/14 01:48:14;;;;;;;19.13;14.80;;;10.60;99.90;;;;;;4993793;28;20039;-79
2022/04/14 01:50:40;;;;;;;22.30;16.25;;;10.50;99.90;;;;;;4991906;28;20045;-79
2022/04/14 01:53:06;;;;;;;17.00;14.30;;;10.40;99.90;;;;;;5028941;28;20033;-79
2022/04/14 01:55:31;;;;;;;18.08;14.70;;;10.40;99.90;;;;;;5011965;28;20037;-79
2022/04/14 01:57:57;;;;;;;20.30;14.20;;;10.40;99.90;;;;;;4995942;28;20045;-79
2022/04/14 02:00:23;;;;;;;20.15;17.13;;;10.30;99.90;;;;;;5028276;28;20064;-79
2022/04/14 02:02:48;;;;;;;19.33;17.17;;;10.30;99.90;;;;;;5024858;28;20089;-79
2022/04/14 02:05:14;;;;;;;20.73;16.48;;;10.30;99.90;;;;;;5023197;28;20073;-79
2022/04/14 02:07:40;;;;;;;17.17;14.00;;;10.20;99.90;;;;;;5010585;28;20056;-78
2022/04/14 02:10:06;;;;;;;16.38;12.63;;;10.20;99.90;;;;;;5008959;28;20041;-79
2022/04/14 02:12:34;;;;;;;17.10;15.27;;;10.20;99.90;;;;;;4994174;28;20037;-78
2022/04/14 02:15:00;;;;;;;20.05;15.23;;;10.20;99.90;;;;;;5010584;28;20049;-78
2022/04/14 02:17:26;;;;;;;20.15;17.20;;;10.10;99.90;;;;;;5030311;28;20048;-78
2022/04/14 02:19:51;;;;;;;21.98;18.50;;;10.20;99.90;;;;;;4987914;28;20050;-79
2022/04/14 02:22:18;;;;;;;24.25;20.92;;;10.20;99.90;;;;;;5006073;28;20042;-79
2022/04/14 02:24:44;;;;;;;23.42;21.05;;;10.10;99.90;;;;;;4984473;28;20057;-79
2022/04/14 02:27:10;;;;;;;19.65;17.52;;;10.20;99.90;;;;;;4994325;28;20042;-79
2022/04/14 02:29:36;;;;;;;25.98;21.38;;;10.20;99.90;;;;;;4962037;28;20128;-78
2022/04/14 02:32:01;;;;;;;24.20;19.88;;;10.20;99.90;;;;;;4961282;28;20492;-78
2022/04/14 02:34:30;;;;;;;21.73;18.85;;;10.20;99.90;;;;;;4978076;28;20045;-78
2022/04/14 02:36:56;;;;;;;20.60;18.40;;;10.10;99.90;;;;;;4986890;28;20488;-78
2022/04/14 02:39:22;;;;;;;22.75;17.98;;;10.10;99.90;;;;;;5008239;28;20049;-77
2022/04/14 02:41:48;;;;;;;20.85;17.88;;;10.10;99.90;;;;;;5009297;28;20056;-78
2022/04/14 02:44:14;;;;;;;19.40;17.08;;;10.10;99.90;;;;;;4994984;28;20049;-79
2022/04/14 02:46:40;;;;;;;22.63;18.80;;;10.00;99.90;;;;;;5010600;28;20057;-78
2022/04/14 02:49:05;;;;;;;25.13;21.15;;;9.90;99.90;;;;;;4993916;28;20053;-79
2022/04/14 02:51:31;;;;;;;23.25;18.55;;;9.90;99.90;;;;;;4993544;28;20049;-79
2022/04/14 02:53:57;;;;;;;23.05;20.73;;;9.90;99.90;;;;;;4994224;28;20480;-78
2022/04/14 02:56:23;;;;;;;24.30;19.75;;;9.90;99.90;;;;;;4994199;28;20564;-78
2022/04/14 02:58:48;;;;;;;24.88;21.35;;;9.90;99.90;;;;;;5003054;28;20083;-78
2022/04/14 03:01:14;;;;;;;26.08;21.33;;;9.90;99.90;;;;;;4983960;28;20546;-78
2022/04/14 03:03:40;;;;;;;23.20;20.80;;;9.90;99.90;;;;;;4989970;28;20509;-79
2022/04/14 03:06:06;;;;;;;25.33;22.63;;;9.90;99.90;;;;;;4999465;28;20464;-78
2022/04/14 03:08:35;;;;;;;27.45;24.42;;;9.80;99.90;;;;;;4975459;28;20054;-78
2022/04/14 03:11:00;;;;;;;31.60;28.30;;;9.70;99.90;;;;;;4990982;28;20042;-79
2022/04/14 03:13:26;;;;;;;24.88;22.20;;;9.60;99.90;;;;;;5010344;28;20403;-79
2022/04/14 03:15:52;;;;;;;27.95;25.17;;;9.60;99.90;;;;;;5011933;28;20084;-79
2022/04/14 03:18:18;;;;;;;35.22;28.80;;;9.60;99.90;;;;;;5013241;28;20048;-79
2022/04/14 03:20:44;;;;;;;36.08;30.02;;;9.60;99.90;;;;;;5011717;28;20137;-78
2022/04/14 03:23:11;;;;;;;38.38;31.30;;;9.60;99.90;;;;;;5009949;28;20056;-79
2022/04/14 03:25:38;;;;;;;26.60;23.77;;;9.60;99.90;;;;;;5010232;28;20143;-79
2022/04/14 03:28:04;;;;;;;24.77;22.20;;;9.60;99.90;;;;;;4973105;28;20045;-80
2022/04/14 03:30:29;;;;;;;38.58;31.10;;;9.50;99.90;;;;;;5011556;28;20041;-78
2022/04/14 03:32:55;;;;;;;28.60;24.77;;;9.50;99.90;;;;;;4994813;28;20084;-79
2022/04/14 03:35:21;;;;;;;27.02;24.23;;;9.40;99.90;;;;;;4981013;28;20492;-78
2022/04/14 03:37:47;;;;;;;32.30;28.63;;;9.30;99.90;;;;;;4957809;28;20157;-78
2022/04/14 03:40:13;;;;;;;33.10;28.33;;;9.30;99.90;;;;;;4994561;28;20100;-78
2022/04/14 03:42:39;;;;;;;26.10;23.13;;;9.30;99.90;;;;;;4996319;28;20131;-79
2022/04/14 03:45:06;;;;;;;40.65;33.20;;;9.30;99.90;;;;;;5012713;28;20048;-78
2022/04/14 03:47:32;;;;;;;30.15;26.02;;;9.20;99.90;;;;;;5009831;28;20132;-79
2022/04/14 03:49:58;;;;;;;29.30;26.08;;;9.20;99.90;;;;;;4992411;28;20048;-78
2022/04/14 03:52:24;;;;;;;26.65;23.85;;;9.20;99.90;;;;;;4988441;28;20042;-78
2022/04/14 03:54:50;;;;;;;29.00;26.00;;;9.20;99.90;;;;;;4972935;28;20053;-78
2022/04/14 03:57:16;;;;;;;27.63;24.80;;;9.20;99.90;;;;;;4956325;28;20046;-78
2022/04/14 03:59:41;;;;;;;31.50;28.20;;;9.20;99.90;;;;;;4989396;28;20057;-78
2022/04/14 04:02:07;;;;;;;26.48;23.52;;;9.20;99.90;;;;;;4988916;28;20052;-78
2022/04/14 04:04:33;;;;;;;43.67;34.42;;;9.20;99.90;;;;;;4992237;28;20140;-78
2022/04/14 04:06:59;;;;;;;47.15;37.47;;;9.10;99.90;;;;;;5007251;28;20061;-79
2022/04/14 04:09:26;;;;;;;29.33;26.15;;;9.10;99.90;;;;;;4974636;28;20049;-78
2022/04/14 04:11:53;;;;;;;30.08;26.88;;;9.00;99.90;;;;;;5006230;28;20057;-78
2022/04/14 04:14:19;;;;;;;31.48;28.08;;;9.00;99.90;;;;;;4991158;28;20040;-78
2022/04/14 04:16:45;;;;;;;37.50;33.22;;;9.00;99.90;;;;;;5007152;28;20064;-78
2022/04/14 04:19:11;;;;;;;33.75;29.80;;;8.90;99.90;;;;;;4990067;28;20037;-78
2022/04/14 04:21:37;;;;;;;51.65;40.42;;;8.90;99.90;;;;;;4990580;28;20057;-78
2022/04/14 04:24:03;;;;;;;53.47;40.72;;;8.90;99.90;;;;;;4989919;28;20516;-78
2022/04/14 04:26:29;;;;;;;72.60;46.95;;;8.90;99.90;;;;;;4975731;28;20128;-78
2022/04/14 04:28:55;;;;;;;121.05;54.83;;;8.90;99.90;;;;;;4975265;28;20128;-78
2022/04/14 04:31:21;;;;;;;84.78;54.95;;;8.80;99.90;;;;;;4991893;28;20076;-78
2022/04/14 04:33:51;;;;;;;79.93;53.42;;;8.70;99.90;;;;;;4975316;28;20528;-78
2022/04/14 04:36:17;;;;;;;55.67;42.72;;;8.70;99.90;;;;;;4975655;28;20131;-78
2022/04/14 04:38:43;;;;;;;45.08;39.00;;;8.70;99.90;;;;;;4975787;28;20404;-78
2022/04/14 04:41:08;;;;;;;38.38;34.42;;;8.60;99.90;;;;;;4990496;28;20041;-78
2022/04/14 04:43:35;;;;;;;31.08;27.98;;;8.60;99.90;;;;;;5007680;28;20518;-78
2022/04/14 04:46:00;;;;;;;49.42;39.47;;;8.60;99.90;;;;;;5005338;28;20047;-78
2022/04/14 04:48:26;;;;;;;109.05;52.60;;;8.60;99.90;;;;;;5007961;28;20053;-78
2022/04/14 04:50:52;;;;;;;99.35;53.55;;;8.50;99.90;;;;;;5005503;28;20049;-78
2022/04/14 04:53:21;;;;;;;49.38;38.83;;;8.50;99.90;;;;;;4975538;28;20041;-77
2022/04/14 04:55:47;;;;;;;371.08;82.10;;;8.50;99.90;;;;;;5006651;28;20120;-78
2022/04/14 04:58:14;;;;;;;90.65;56.45;;;8.40;99.90;;;;;;5018288;28;20045;-78
2022/04/14 05:00:40;;;;;;;34.97;31.50;;;8.30;99.90;;;;;;4986874;28;20042;-78
2022/04/14 05:03:10;;;;;;;34.05;30.65;;;8.30;99.90;;;;;;4968429;28;20389;-78
2022/04/14 05:05:37;;;;;;;34.22;30.75;;;8.30;99.90;;;;;;4983639;28;20045;-78
2022/04/14 05:08:05;;;;;;;194.68;68.78;;;8.30;99.90;;;;;;4989807;28;20111;-78
2022/04/14 05:10:32;;;;;;;78.57;52.75;;;8.30;99.90;;;;;;5005163;28;20064;-78
2022/04/14 05:12:58;;;;;;;72.35;54.00;;;8.30;99.90;;;;;;4991433;28;20518;-78
2022/04/14 05:15:24;;;;;;;72.07;54.47;;;8.30;99.90;;;;;;4988569;28;20045;-78
2022/04/14 05:17:50;;;;;;;86.55;62.00;;;8.30;99.90;;;;;;4973369;28;20403;-78
2022/04/14 05:20:16;;;;;;;69.90;53.13;;;8.30;99.90;;;;;;4978199;28;20048;-78
2022/04/14 05:22:42;;;;;;;83.57;58.33;;;8.30;99.90;;;;;;4988275;28;20072;-78
2022/04/14 05:25:08;;;;;;;161.20;71.63;;;8.40;99.90;;;;;;5008851;28;20120;-77
2022/04/14 05:27:34;;;;;;;83.43;61.05;;;8.40;99.90;;;;;;4973960;28;20114;-78
2022/04/14 05:30:00;;;;;;;62.53;50.92;;;8.40;99.90;;;;;;5007870;28;20136;-77
2022/04/14 05:32:26;;;;;;;113.45;67.85;;;8.50;99.90;;;;;;4981525;28;20607;-78
2022/04/14 05:34:52;;;;;;;130.88;74.78;;;8.40;99.90;;;;;;4973420;28;20349;-78
2022/04/14 05:37:18;;;;;;;161.73;78.05;;;8.50;99.90;;;;;;4990232;28;20539;-78
2022/04/14 05:39:44;;;;;;;103.93;67.80;;;8.50;99.90;;;;;;4986223;28;20049;-78
2022/04/14 05:42:10;;;;;;;117.22;71.47;;;8.60;99.90;;;;;;5003506;28;20505;-78
2022/04/14 05:44:36;;;;;;;101.95;68.20;;;8.60;99.90;;;;;;5007596;28;20136;-78
2022/04/14 05:47:05;;;;;;;89.93;65.40;;;8.70;99.90;;;;;;5008270;28;20195;-78
2022/04/14 05:49:31;;;;;;;87.40;62.40;;;8.70;99.90;;;;;;4992897;28;20052;-78
2022/04/14 05:51:56;;;;;;;97.30;69.22;;;8.80;99.90;;;;;;4988035;28;20048;-78
2022/04/14 05:54:22;;;;;;;93.38;69.00;;;8.80;99.90;;;;;;5006754;28;20096;-78
2022/04/14 05:56:48;;;;;;;109.75;75.70;;;8.90;99.90;;;;;;4977775;28;20069;-77
2022/04/14 05:59:17;;;;;;;103.57;74.30;;;9.00;99.90;;;;;;5008130;28;20057;-78
2022/04/14 06:01:47;;;;;;;96.45;71.82;;;9.10;99.90;;;;;;4974433;28;20072;-78
2022/04/14 06:04:13;;;;;;;101.93;74.00;;;9.30;99.90;;;;;;5003997;28;20438;-78
2022/04/14 06:06:39;;;;;;;87.32;68.93;;;9.30;99.90;;;;;;5023224;28;20498;-78
2022/04/14 06:09:05;;;;;;;86.35;65.75;;;9.40;99.90;;;;;;4983427;28;20116;-78
2022/04/14 06:11:31;;;;;;;92.03;69.45;;;9.50;99.90;;;;;;4996527;28;20136;-78
2022/04/14 06:13:57;;;;;;;88.43;62.92;;;9.60;99.90;;;;;;5012668;28;20073;-78
2022/04/14 06:16:22;;;;;;;86.85;64.65;;;9.70;99.90;;;;;;5019608;28;20064;-79
2022/04/14 06:18:48;;;;;;;80.63;61.63;;;9.80;99.90;;;;;;5013474;28;20045;-78
2022/04/14 06:21:14;;;;;;;75.70;57.25;;;9.90;99.90;;;;;;4998534;28;20444;-79
2022/04/14 06:23:40;;;;;;;76.00;57.63;;;10.00;99.90;;;;;;4992262;28;20381;-78
2022/04/14 06:26:06;;;;;;;72.32;58.20;;;10.10;99.90;;;;;;5017924;28;20581;-78
2022/04/14 06:28:34;;;;;;;77.88;59.70;;;10.10;99.90;;;;;;4974728;28;20128;-79
2022/04/14 06:31:00;;;;;;;75.97;61.60;;;10.30;99.90;;;;;;4976209;28;20057;-78
2022/04/14 06:33:30;;;;;;;76.00;57.58;;;10.30;99.90;;;;;;4991573;28;20046;-79
2022/04/14 06:35:58;;;;;;;73.68;55.17;;;10.40;99.90;;;;;;4991800;28;20408;-79
2022/04/14 06:38:26;;;;;;;67.80;53.60;;;10.60;99.90;;;;;;5005090;28;20118;-79
2022/04/14 06:40:52;;;;;;;67.05;52.15;;;10.70;99.90;;;;;;5003341;28;20491;-79
2022/04/14 06:43:18;;;;;;;69.63;52.17;;;10.70;99.90;;;;;;4983230;28;20051;-79
2022/04/14 06:45:44;;;;;;;66.03;51.97;;;10.90;99.90;;;;;;4998761;28;20076;-79
2022/04/14 06:48:10;;;;;;;62.25;50.05;;;11.00;99.90;;;;;;5021435;28;20132;-78
2022/04/14 06:50:36;;;;;;;55.65;46.30;;;11.10;99.90;;;;;;4989139;28;20044;-80
2022/04/14 06:53:02;;;;;;;57.35;45.95;;;11.00;99.90;;;;;;4974252;28;20598;-78
2022/04/14 06:55:28;;;;;;;60.47;47.60;;;11.10;99.90;;;;;;4975464;28;20053;-78
2022/04/14 06:57:56;;;;;;;54.60;43.58;;;11.10;99.90;;;;;;4991376;28;20041;-78
2022/04/14 07:00:22;;;;;;;55.72;45.40;;;11.30;99.90;;;;;;4977238;28;20059;-78
2022/04/14 07:02:49;;;;;;;53.15;43.83;;;11.40;99.90;;;;;;5010765;28;20045;-79
2022/04/14 07:05:15;;;;;;;54.63;43.47;;;11.50;99.90;;;;;;5006183;28;20794;-79
2022/04/14 07:07:41;;;;;;;49.40;40.50;;;11.60;99.90;;;;;;4989579;28;20064;-79
2022/04/14 07:10:07;;;;;;;47.72;37.58;;;11.70;99.90;;;;;;5007892;28;20045;-79
2022/04/14 07:12:33;;;;;;;46.47;37.63;;;11.80;99.90;;;;;;4990097;28;20048;-78
2022/04/14 07:15:00;;;;;;;47.33;37.30;;;12.00;99.90;;;;;;4985440;28;20496;-78
2022/04/14 07:17:26;;;;;;;40.75;34.08;;;12.10;99.90;;;;;;4990592;28;20504;-79
2022/04/14 07:19:52;;;;;;;36.00;29.38;;;12.20;99.90;;;;;;4990320;28;20497;-79
2022/04/14 07:22:19;;;;;;;36.42;30.10;;;12.40;99.90;;;;;;5017134;28;20489;-79
2022/04/14 07:24:48;;;;;;;35.95;28.35;;;12.60;99.90;;;;;;5011872;28;20289;-79
2022/04/14 07:27:19;;;;;;;34.65;29.05;;;12.70;99.90;;;;;;4989570;28;20512;-79
2022/04/14 07:29:46;;;;;;;40.55;30.70;;;12.80;99.90;;;;;;4984717;28;20484;-79
2022/04/14 07:32:13;;;;;;;34.92;27.88;;;13.00;99.90;;;;;;5004859;28;20041;-79
2022/04/14 07:34:39;;;;;;;32.38;26.25;;;13.10;99.90;;;;;;4985410;28;20047;-80
2022/04/14 07:37:05;;;;;;;30.48;24.90;;;13.30;99.90;;;;;;5004886;28;20045;-79
2022/04/14 07:39:31;;;;;;;29.92;24.02;;;13.40;99.90;;;;;;5008113;28;20052;-80
2022/04/14 07:41:56;;;;;;;32.33;24.13;;;13.50;99.90;;;;;;4987003;28;20048;-79
2022/04/14 07:44:22;;;;;;;30.75;25.35;;;13.60;99.90;;;;;;5005846;28;20057;-79
2022/04/14 07:46:48;;;;;;;30.45;23.25;;;13.70;99.90;;;;;;5004908;28;20037;-80
2022/04/14 07:49:14;;;;;;;30.02;23.67;;;13.80;99.90;;;;;;4990549;28;20072;-79
2022/04/14 07:51:42;;;;;;;30.35;24.23;;;13.90;99.90;;;;;;4989139;28;20168;-79
2022/04/14 07:54:08;;;;;;;31.20;24.08;;;14.00;99.90;;;;;;5006990;28;21199;-79
2022/04/14 07:56:34;;;;;;;29.67;24.35;;;14.20;99.90;;;;;;4987982;28;20095;-80
2022/04/14 07:59:00;;;;;;;29.73;23.67;;;14.20;99.90;;;;;;4991171;28;20475;-79
2022/04/14 08:01:27;;;;;;;27.80;22.83;;;14.40;99.90;;;;;;4969871;28;20053;-80
2022/04/14 08:03:53;;;;;;;28.95;23.42;;;14.50;99.90;;;;;;4972851;28;20041;-79
2022/04/14 08:06:19;;;;;;;24.13;20.75;;;14.60;99.90;;;;;;4971730;28;20041;-79
2022/04/14 08:08:44;;;;;;;24.27;20.60;;;14.80;99.90;;;;;;4992406;28;20104;-79
2022/04/14 08:11:11;;;;;;;24.50;20.33;;;14.90;99.90;;;;;;5005778;28;20077;-80
2022/04/14 08:13:41;;;;;;;23.73;18.33;;;15.00;99.90;;;;;;4988865;28;20471;-79
2022/04/14 08:16:09;;;;;;;22.02;18.70;;;15.10;99.90;;;;;;4992001;28;20137;-78
2022/04/14 08:18:36;;;;;;;21.63;17.63;;;15.20;99.90;;;;;;4991221;28;20551;-80
2022/04/14 08:21:03;;;;;;;19.83;16.73;;;15.30;99.90;;;;;;4989608;28;20041;-79
2022/04/14 08:23:30;;;;;;;18.27;14.88;;;15.40;99.90;;;;;;5002184;28;20145;-80
2022/04/14 08:25:57;;;;;;;18.45;16.33;;;15.40;99.90;;;;;;5021766;28;20547;-82
2022/04/14 08:28:22;;;;;;;18.42;16.08;;;15.50;99.90;;;;;;5007470;28;20049;-81
2022/04/14 08:30:48;;;;;;;18.35;15.57;;;15.60;99.90;;;;;;4994837;28;20361;-81
2022/04/14 08:33:16;;;;;;;19.77;15.98;;;15.60;99.90;;;;;;4991848;28;20041;-80
2022/04/14 08:35:42;;;;;;;20.55;16.75;;;15.70;99.90;;;;;;5013161;28;20048;-80
2022/04/14 08:38:08;;;;;;;18.35;15.82;;;15.80;99.90;;;;;;5004435;28;20052;-81
2022/04/14 08:40:36;;;;;;;17.35;15.55;;;15.90;99.90;;;;;;4993120;28;20037;-79
2022/04/14 08:43:04;;;;;;;19.00;16.65;;;15.90;99.90;;;;;;5007063;28;20472;-81
2022/04/14 08:45:34;;;;;;;16.65;14.70;;;16.00;99.90;;;;;;5008741;28;20048;-79
2022/04/14 08:48:02;;;;;;;18.48;14.80;;;16.20;99.90;;;;;;5006190;28;20091;-81
2022/04/14 08:50:29;;;;;;;16.98;15.07;;;16.20;99.90;;;;;;4997203;28;20396;-80
2022/04/14 08:52:55;;;;;;;16.80;14.95;;;16.30;99.90;;;;;;4987546;28;20812;-81
2022/04/14 08:55:21;;;;;;;18.38;15.48;;;16.20;99.90;;;;;;4986765;28;20088;-79
2022/04/14 08:57:47;;;;;;;18.85;15.45;;;16.20;99.90;;;;;;4990882;28;20608;-80
2022/04/14 09:00:16;;;;;;;17.70;14.35;;;16.30;99.90;;;;;;4986131;28;20045;-82
2022/04/14 09:02:46;;;;;;;17.08;15.30;;;16.40;99.90;;;;;;5010133;28;20478;-82
2022/04/14 09:05:17;;;;;;;18.45;16.52;;;16.30;99.90;;;;;;5010287;28;20049;-81
2022/04/14 09:07:49;;;;;;;18.73;15.40;;;16.30;99.90;;;;;;5001081;28;20045;-85
2022/04/14 09:10:15;;;;;;;17.90;15.50;;;16.40;99.90;;;;;;5003925;28;20492;-81
2022/04/14 09:12:41;;;;;;;16.98;15.18;;;16.40;99.90;;;;;;5027936;28;20057;-82
2022/04/14 09:15:07;;;;;;;18.60;15.85;;;16.40;99.90;;;;;;4995088;28;20056;-79
2022/04/14 09:17:33;;;;;;;18.50;16.02;;;16.40;99.90;;;;;;4965010;28;20056;-78
2022/04/14 09:19:59;;;;;;;18.27;16.27;;;16.50;99.90;;;;;;5007049;28;20445;-85
2022/04/14 09:22:25;;;;;;;18.42;15.43;;;16.70;99.90;;;;;;4997523;28;20583;-86
2022/04/14 09:24:52;;;;;;;17.70;15.80;;;16.70;99.90;;;;;;5003572;28;20037;-86
2022/04/14 09:27:29;;;;;;;17.52;15.43;;;16.80;99.90;;;;;;4978702;28;20045;-85
2022/04/14 09:30:00;;;;;;;16.92;15.13;;;17.00;99.90;;;;;;4990349;28;20125;-85
2022/04/14 09:32:46;;;;;;;16.80;15.00;;;17.10;99.90;;;;;;5004632;28;20083;-87
2022/04/14 09:35:20;;;;;;;18.67;15.25;;;17.10;99.90;;;;;;4993566;28;20298;-88
2022/04/14 09:37:59;;;;;;;16.15;14.45;;;17.10;99.90;;;;;;5012996;28;20119;-88
2022/04/14 09:40:30;;;;;;;17.15;15.38;;;17.20;99.90;;;;;;4996049;28;20048;-87
2022/04/14 09:42:56;;;;;;;20.25;16.10;;;17.10;99.90;;;;;;4997652;28;20539;-85
2022/04/14 09:45:22;;;;;;;16.83;15.07;;;17.00;99.90;;;;;;5011166;28;20582;-88
2022/04/14 09:48:01;;;;;;;14.57;12.98;;;17.00;99.90;;;;;;4993142;28;20471;-80
2022/04/14 09:50:32;;;;;;;15.95;14.25;;;17.00;99.90;;;;;;4999622;28;20081;-83
2022/04/14 09:53:02;;;;;;;15.38;13.50;;;16.90;99.90;;;;;;5001869;28;20741;-82
2022/04/14 09:55:29;;;;;;;13.95;12.55;;;16.80;99.90;;;;;;5005660;28;20056;-83
2022/04/14 09:58:15;;;;;;;14.43;11.68;;;16.70;99.90;;;;;;4998338;28;20577;-82
2022/04/14 10:00:41;;;;;;;11.43;10.23;;;16.60;99.90;;;;;;5018348;28;20106;-82
2022/04/14 10:03:15;;;;;;;13.90;11.07;;;16.50;99.90;;;;;;5018602;28;20570;-84
2022/04/14 10:05:41;;;;;;;10.52;9.43;;;16.50;99.90;;;;;;5017433;28;20114;-80
2022/04/14 10:08:08;;;;;;;11.95;10.45;;;16.50;99.90;;;;;;4991057;28;20097;-82
2022/04/14 10:10:43;;;;;;;11.23;9.98;;;16.60;99.90;;;;;;4983348;28;20049;-84
2022/04/14 10:13:14;;;;;;;12.30;11.00;;;16.60;99.90;;;;;;5022753;28;20539;-80
2022/04/14 10:15:52;;;;;;;16.60;11.20;;;16.60;99.90;;;;;;5007095;28;20045;-80
2022/04/14 10:18:19;;;;;;;10.35;9.23;;;16.70;99.90;;;;;;5009959;28;20557;-83
2022/04/14 10:20:46;;;;;;;11.82;9.98;;;16.70;99.90;;;;;;4983249;28;20037;-80
2022/04/14 10:23:14;;;;;;;11.52;9.23;;;16.80;99.90;;;;;;5005895;28;20284;-83
2022/04/14 10:25:41;;;;;;;10.50;8.80;;;16.80;99.90;;;;;;5023492;28;20071;-82
2022/04/14 10:28:09;;;;;;;12.13;8.43;;;17.00;99.90;;;;;;4982382;28;20037;-82
2022/04/14 10:30:34;;;;;;;10.32;8.40;;;17.20;99.90;;;;;;4976070;28;20042;-82
2022/04/14 10:33:00;;;;;;;14.10;10.40;;;17.40;99.90;;;;;;4980350;28;20052;-81
2022/04/14 10:35:28;;;;;;;12.70;10.68;;;17.70;99.90;;;;;;4996170;28;20053;-82
2022/04/14 10:38:03;;;;;;;12.95;10.73;;;17.70;99.90;;;;;;5012530;28;20045;-81
2022/04/14 10:40:31;;;;;;;13.32;11.02;;;17.60;99.90;;;;;;4995623;28;20041;-83
2022/04/14 10:42:58;;;;;;;13.45;10.00;;;17.30;99.90;;;;;;4995255;28;20422;-81
2022/04/14 10:45:24;;;;;;;13.35;9.25;;;17.00;99.90;;;;;;5010402;28;20570;-80
2022/04/14 10:47:50;;;;;;;12.65;9.85;;;16.80;99.90;;;;;;5006371;28;20095;-80
2022/04/14 10:50:30;;;;;;;10.77;8.55;;;16.70;99.90;;;;;;5007044;28;20061;-81
2022/04/14 10:53:19;;;;;;;;;;;16.90;99.90;;;;;;4991541;28;20072;-81
2022/04/14 10:55:47;;;;;;;12.10;8.68;;;17.20;99.90;;;;;;4987531;28;19928;-82
2022/04/14 10:58:41;;;;;;;8.02;5.95;;;17.50;99.90;;;;;;5017130;28;20056;-80
2022/04/14 11:01:11;;;;;;;7.72;5.65;;;17.70;99.40;;;;;;5005537;28;20109;-80
2022/04/14 11:03:54;;;;;;;6.45;4.35;;;17.70;96.90;;;;;;5003801;28;20067;-82
2022/04/14 11:07:07;;;;;;;6.03;3.83;;;17.60;95.60;;;;;;5027595;28;20048;-81
2022/04/14 11:09:53;;;;;;;5.63;3.45;;;17.50;93.00;;;;;;4965044;28;20042;-80
2022/04/14 11:12:26;;;;;;;6.22;3.38;;;17.40;96.00;;;;;;5006500;28;20148;-80
2022/04/14 11:14:57;;;;;;;5.82;3.00;;;17.50;97.20;;;;;;4985421;28;20046;-80
2022/04/14 11:20:16;;;;;;;5.38;3.60;;;18.10;95.50;;;;;;5007701;28;20061;-82
2022/04/14 11:23:04;;;;;;;5.65;3.38;;;18.20;93.20;;;;;;4980966;28;20049;-80
2022/04/14 11:25:45;;;;;;;6.60;4.15;;;18.10;93.40;;;;;;4992108;28;20089;-83
2022/04/14 11:28:25;;;;;;;7.30;3.90;;;18.00;92.40;;;;;;4989703;28;20045;-82
2022/04/14 11:31:01;;;;;;;8.68;4.70;;;17.90;92.90;;;;;;5004068;28;20181;-83
2022/04/14 11:33:30;;;;;;;6.03;4.47;;;17.90;93.90;;;;;;4991180;28;20056;-82
2022/04/14 11:36:15;;;;;;;5.35;3.35;;;18.00;95.60;;;;;;4995020;28;20037;-81
2022/04/14 11:39:06;;;;;;;5.82;3.70;;;18.20;93.10;;;;;;5005262;28;20078;-82
2022/04/14 11:41:39;;;;;;;9.88;5.55;;;18.40;93.20;;;;;;4993063;28;20512;-82
2022/04/14 11:44:10;;;;;;;7.07;5.18;;;18.50;92.40;;;;;;5012832;28;20504;-85
2022/04/14 11:46:44;;;;;;;7.63;5.75;;;18.50;94.00;;;;;;4990858;28;20048;-84
2022/04/14 11:49:13;;;;;;;8.75;5.50;;;18.50;95.00;;;;;;4998230;28;20041;-83
2022/04/14 11:51:44;;;;;;;12.32;5.90;;;18.70;96.00;;;;;;5006318;28;20041;-82
2022/04/14 11:54:12;;;;;;;6.25;4.38;;;18.80;94.70;;;;;;5013090;28;20172;-82
2022/04/14 11:56:38;;;;;;;5.95;3.50;;;18.90;95.10;;;;;;5003861;28;20049;-85
2022/04/14 11:59:08;;;;;;;5.25;2.45;;;18.80;91.40;;;;;;4989354;28;20049;-85
2022/04/14 12:01:35;;;;;;;;;;;18.80;91.90;;;;;;4979441;28;20561;-83
2022/04/14 12:04:01;;;;;;;5.47;2.92;;;18.70;85.90;;;;;;4984804;28;19975;-84
2022/04/14 12:06:27;;;;;;;7.45;3.47;;;18.60;91.20;;;;;;5002178;28;20053;-84
2022/04/14 12:08:58;;;;;;;6.10;4.18;;;18.60;91.20;;;;;;4989049;28;20052;-86
2022/04/14 12:11:29;;;;;;;7.68;4.15;;;18.60;92.20;;;;;;4983030;28;20634;-83
2022/04/14 12:13:57;;;;;;;7.28;4.18;;;18.50;95.10;;;;;;5002720;28;20579;-84
2022/04/14 12:16:23;;;;;;;7.03;3.50;;;18.60;93.80;;;;;;5002017;28;20541;-82
2022/04/14 12:18:51;;;;;;;7.72;3.97;;;18.60;92.60;;;;;;5001308;28;20164;-81
2022/04/14 12:21:25;;;;;;;6.68;3.90;;;18.60;91.30;;;;;;4986188;28;20043;-83
2022/04/14 12:23:53;;;;;;;6.38;3.25;;;18.60;92.10;;;;;;4992483;28;20523;-83
2022/04/14 12:26:21;;;;;;;7.15;3.38;;;18.50;92.60;;;;;;4955510;28;20132;-83
2022/04/14 12:28:48;;;;;;;6.63;3.80;;;18.50;91.60;;;;;;4987683;28;20378;-84
2022/04/14 12:31:18;;;;;;;6.57;4.13;;;18.50;92.20;;;;;;4994880;28;20052;-85
2022/04/14 12:34:00;;;;;;;6.07;3.65;;;18.40;93.30;;;;;;4990980;28;20204;-84
2022/04/14 12:36:37;;;;;;;6.60;4.00;;;18.50;93.50;;;;;;5001804;28;20753;-85
2022/04/14 12:39:18;;;;;;;5.38;2.42;;;18.50;94.10;;;;;;5002315;28;20048;-82
2022/04/14 12:41:47;;;;;;;3.92;1.90;;;18.70;93.40;;;;;;4983076;28;20418;-83